Terminal Aerodrome Forecast
Issued by NWS Cleveland, OH

Home | Current Version | Previous Version | Graphics & Text | Print | Product List | Glossary On
Versions: 1 2 3 4 5 6 7 8 9 10 11 12 13 14 15 16 17 18 19 20 21 22
000
FTUS41 KCLE 250200 AAA
TAFERI
TAF AMD
KERI 250229Z 2502/2524 26013G21KT 4SM BR OVC005
     FM250500 28012KT P6SM VCSH OVC010
     FM251000 32011KT P6SM OVC015
     FM251200 01010KT P6SM BKN025
     FM251600 04010KT P6SM SCT040 SCT250=

USA.gov is the U.S. government's official web portal to all federal, state and local government web resources and services.